createdAt,value
2022-08-11T00:01:27.061Z,385.4
2022-08-11T00:03:10.766Z,385.1
2022-08-11T00:04:54.470Z,387.2
2022-08-11T00:06:38.167Z,388.2
2022-08-11T00:08:21.871Z,390.1
2022-08-11T00:10:05.571Z,388.3
2022-08-11T00:11:49.294Z,386.8
2022-08-11T00:13:32.976Z,383.2
2022-08-11T00:15:16.671Z,383.3
2022-08-11T00:17:00.379Z,388
2022-08-11T00:18:44.077Z,396.6
2022-08-11T00:20:27.793Z,393.3
2022-08-11T00:22:11.479Z,390.1
2022-08-11T00:23:55.202Z,391.7
2022-08-11T00:25:38.883Z,389.5
2022-08-11T00:27:22.593Z,387
2022-08-11T00:29:06.290Z,386.3
2022-08-11T00:30:50.004Z,388.4
2022-08-11T00:32:33.697Z,387.5
2022-08-11T00:34:17.394Z,387.2
2022-08-11T00:36:01.108Z,385.5
2022-08-11T00:37:44.803Z,384.4
2022-08-11T00:39:28.506Z,385.8
2022-08-11T00:41:12.211Z,386.2
2022-08-11T00:42:55.912Z,384.3
2022-08-11T00:44:39.606Z,383.7
2022-08-11T00:46:23.316Z,383.1
2022-08-11T00:48:07.015Z,383.3
2022-08-11T00:49:50.722Z,383
2022-08-11T00:51:34.421Z,377.8
2022-08-11T00:53:18.135Z,381
2022-08-11T00:55:01.836Z,380.6
2022-08-11T00:56:45.540Z,381.4
2022-08-11T00:58:29.231Z,382.3
2022-08-11T01:00:12.944Z,384.3
2022-08-11T01:01:56.638Z,386.5
2022-08-11T01:03:40.340Z,387.1
2022-08-11T01:05:24.054Z,387.9
2022-08-11T01:07:07.740Z,387
2022-08-11T01:08:51.443Z,388
2022-08-11T01:10:35.153Z,390.3
2022-08-11T01:12:18.855Z,392.1
2022-08-11T01:14:02.558Z,391.5
2022-08-11T01:15:46.260Z,391.2
2022-08-11T01:17:29.961Z,389.8
2022-08-11T01:19:13.671Z,389.5
2022-08-11T01:20:57.370Z,389.2
2022-08-11T01:22:41.063Z,390.1
2022-08-11T01:24:24.773Z,390.5
2022-08-11T01:26:08.472Z,387.9
2022-08-11T01:27:52.175Z,387.8
2022-08-11T01:29:35.876Z,388.4
2022-08-11T01:31:19.577Z,388.8
2022-08-11T01:33:03.277Z,387.5
2022-08-11T01:34:46.981Z,386
2022-08-11T01:36:30.687Z,385
2022-08-11T01:38:14.384Z,384.4
2022-08-11T01:39:58.087Z,381.1
2022-08-11T01:41:41.788Z,380.5
2022-08-11T01:43:25.495Z,378.1
2022-08-11T01:45:09.190Z,378.4
2022-08-11T01:46:52.891Z,380.7
2022-08-11T01:48:36.601Z,381
2022-08-11T01:50:20.297Z,380.3
2022-08-11T01:52:04.004Z,384.6
2022-08-11T01:53:47.713Z,385.4
2022-08-11T01:55:31.403Z,381.1
2022-08-11T01:57:15.112Z,381.6
2022-08-11T01:58:58.809Z,382.2
2022-08-11T02:00:42.517Z,382.2
2022-08-11T02:02:26.227Z,380.9
2022-08-11T02:04:09.912Z,380.9
2022-08-11T02:05:53.617Z,380.5
2022-08-11T02:07:37.319Z,381.6
2022-08-11T02:09:21.011Z,383.8
2022-08-11T02:11:04.718Z,383.4
2022-08-11T02:12:48.436Z,382.4
2022-08-11T02:14:32.122Z,382.9
2022-08-11T02:16:15.861Z,381.2
2022-08-11T02:17:59.525Z,381.7
2022-08-11T02:19:43.236Z,383.4
2022-08-11T02:21:26.957Z,384.4
2022-08-11T02:23:10.637Z,380.9
2022-08-11T02:24:54.341Z,380.8
2022-08-11T02:26:38.043Z,382.4
2022-08-11T02:28:21.744Z,384.8
2022-08-11T02:30:05.448Z,383.8
2022-08-11T02:31:49.152Z,386.3
2022-08-11T02:33:32.877Z,387.7
2022-08-11T02:35:16.555Z,384.9
2022-08-11T02:37:00.256Z,386.4
2022-08-11T02:38:43.958Z,386.1
2022-08-11T02:40:27.691Z,384.3
2022-08-11T02:42:11.354Z,382.8
2022-08-11T02:43:55.066Z,383.8
2022-08-11T02:45:38.764Z,383.3
2022-08-11T02:47:22.464Z,384.6
2022-08-11T02:49:06.175Z,382.1
2022-08-11T02:50:49.872Z,379.5
2022-08-11T02:52:33.569Z,378.1
2022-08-11T02:54:17.279Z,375.3
2022-08-11T02:56:00.975Z,377.8
2022-08-11T02:57:44.674Z,378
2022-08-11T02:59:28.383Z,379.3
2022-08-11T03:01:12.075Z,381.1
2022-08-11T03:02:55.786Z,380.3
2022-08-11T03:04:39.483Z,378.2
2022-08-11T03:06:23.190Z,377.4
2022-08-11T03:08:06.892Z,376.8
2022-08-11T03:09:50.597Z,377.8
2022-08-11T03:11:34.297Z,379
2022-08-11T03:13:17.998Z,379.2
2022-08-11T03:15:01.701Z,379.2
2022-08-11T03:16:45.404Z,384.5
2022-08-11T03:18:29.103Z,387.1
2022-08-11T03:20:12.797Z,386.7
2022-08-11T03:21:56.504Z,388.4
2022-08-11T03:23:40.237Z,390.3
2022-08-11T03:25:23.917Z,390.5
2022-08-11T03:27:07.616Z,391.1
2022-08-11T03:28:51.311Z,392.8
2022-08-11T03:30:35.018Z,394.1
2022-08-11T03:32:18.723Z,391.5
2022-08-11T03:34:02.418Z,392.3
2022-08-11T03:35:46.126Z,387.9
2022-08-11T03:37:29.838Z,385.4
2022-08-11T03:39:13.525Z,387.4
2022-08-11T03:40:57.229Z,387.5
2022-08-11T03:42:40.943Z,388.6
2022-08-11T03:44:24.630Z,385.7
2022-08-11T03:46:08.350Z,385.9
2022-08-11T03:47:52.037Z,388.2
2022-08-11T03:49:35.745Z,393.1
2022-08-11T03:51:19.464Z,394.5
2022-08-11T03:53:03.135Z,392
2022-08-11T03:54:46.841Z,390.1
2022-08-11T03:56:30.546Z,391.4
2022-08-11T03:58:14.253Z,393
2022-08-11T03:59:57.958Z,392.6
2022-08-11T04:01:41.647Z,392.9
2022-08-11T04:03:25.348Z,394.5
2022-08-11T04:05:09.051Z,392.7
2022-08-11T04:06:52.751Z,392.1
2022-08-11T04:08:36.453Z,391.7
2022-08-11T04:10:20.158Z,390.1
2022-08-11T04:12:03.864Z,393
2022-08-11T04:13:47.552Z,397.2
2022-08-11T04:15:31.269Z,395.9
2022-08-11T04:17:14.964Z,395.7
2022-08-11T04:18:58.665Z,397
2022-08-11T04:20:42.361Z,395.4
2022-08-11T04:22:26.059Z,393.5
2022-08-11T04:24:09.767Z,390.2
2022-08-11T04:25:53.460Z,390.9
2022-08-11T04:27:37.171Z,388.5
2022-08-11T04:29:20.872Z,390.2
2022-08-11T04:31:04.563Z,393.6
2022-08-11T04:32:48.275Z,393.7
2022-08-11T04:34:31.963Z,395.1
2022-08-11T04:36:15.676Z,394
2022-08-11T04:37:59.372Z,392.1
2022-08-11T04:39:43.062Z,389.4
2022-08-11T04:41:26.774Z,390.6
2022-08-11T04:43:10.475Z,391.9
2022-08-11T04:44:54.165Z,390.8
2022-08-11T04:46:37.877Z,388.2
2022-08-11T04:48:21.574Z,387.3
2022-08-11T04:50:05.281Z,387
2022-08-11T04:51:48.971Z,387.6
2022-08-11T04:53:32.676Z,390.3
2022-08-11T04:55:16.378Z,389.8
2022-08-11T04:57:00.086Z,391
2022-08-11T04:58:43.773Z,389.4
2022-08-11T05:00:27.481Z,386.8
2022-08-11T05:02:11.180Z,386.2
2022-08-11T05:03:54.880Z,386
2022-08-11T05:05:38.622Z,387.1
2022-08-11T05:07:22.306Z,392
2022-08-11T05:09:05.986Z,386.3
2022-08-11T05:10:49.691Z,384.5
2022-08-11T05:12:33.393Z,382.8
2022-08-11T05:14:17.102Z,381.3
2022-08-11T05:16:00.802Z,387.3
2022-08-11T05:17:44.491Z,386.4
2022-08-11T05:19:28.207Z,388.6
2022-08-11T05:21:11.914Z,390
2022-08-11T05:22:55.600Z,389.9
2022-08-11T05:24:39.302Z,389.3
2022-08-11T05:26:23.008Z,393
2022-08-11T05:28:06.699Z,390.3
2022-08-11T05:29:50.420Z,392
2022-08-11T05:31:34.109Z,391.8
2022-08-11T05:33:17.813Z,393.9
2022-08-11T05:35:01.511Z,394.1
2022-08-11T05:36:45.209Z,389.8
2022-08-11T05:38:28.911Z,393.2
2022-08-11T05:40:12.613Z,395.7
2022-08-11T05:41:56.313Z,391.7
2022-08-11T05:43:40.014Z,390.3
2022-08-11T05:45:23.718Z,386.8
2022-08-11T05:47:07.413Z,391.2
2022-08-11T05:48:51.119Z,392.7
2022-08-11T05:50:34.829Z,392.8
2022-08-11T05:52:18.531Z,393.9
2022-08-11T05:54:02.228Z,393.4
2022-08-11T05:55:45.923Z,393.1
2022-08-11T05:57:29.626Z,391
2022-08-11T05:59:13.328Z,389.8
2022-08-11T06:00:57.040Z,390
2022-08-11T06:02:40.725Z,390.6
2022-08-11T06:04:24.441Z,390.2
2022-08-11T06:06:08.135Z,389.3
2022-08-11T06:07:51.834Z,392.4
2022-08-11T06:09:35.542Z,392.7
2022-08-11T06:11:19.250Z,392.9
2022-08-11T06:13:02.953Z,393.7
2022-08-11T06:14:46.645Z,392.5
2022-08-11T06:16:30.345Z,393.2
2022-08-11T06:18:14.050Z,392
2022-08-11T06:19:57.753Z,389.7
2022-08-11T06:21:41.452Z,389.2
2022-08-11T06:23:25.168Z,391.6
2022-08-11T06:25:08.860Z,388.7
2022-08-11T06:26:52.561Z,386.8
2022-08-11T06:28:36.269Z,385
2022-08-11T06:30:19.997Z,384.6
2022-08-11T06:32:03.707Z,384.9
2022-08-11T06:33:47.391Z,380.7
2022-08-11T06:35:31.085Z,381.2
2022-08-11T06:37:14.779Z,381.5
2022-08-11T06:38:58.486Z,382.9
2022-08-11T06:40:42.188Z,384.2
2022-08-11T06:42:25.892Z,382.6
2022-08-11T06:44:09.582Z,380.4
2022-08-11T06:45:53.289Z,383.1
2022-08-11T06:47:36.994Z,388
2022-08-11T06:49:20.696Z,387.9
2022-08-11T06:51:04.411Z,386.5
2022-08-11T06:52:48.111Z,385.1
2022-08-11T06:54:31.827Z,385.1
2022-08-11T06:56:15.504Z,386.3
2022-08-11T06:57:59.200Z,386.2
2022-08-11T06:59:42.902Z,387.5
2022-08-11T07:01:26.608Z,387.8
2022-08-11T07:03:10.315Z,384.3
2022-08-11T07:04:54.010Z,383.1
2022-08-11T07:06:37.715Z,380.2
2022-08-11T07:08:21.414Z,381.8
2022-08-11T07:10:05.123Z,384
2022-08-11T07:11:48.822Z,384.5
2022-08-11T07:13:32.523Z,386.3
2022-08-11T07:15:16.230Z,389.2
2022-08-11T07:16:59.945Z,392.1
2022-08-11T07:18:43.635Z,393.5
2022-08-11T07:20:27.333Z,392.6
2022-08-11T07:22:11.037Z,392.5
2022-08-11T07:23:54.739Z,392.6
2022-08-11T07:25:38.445Z,395.3
2022-08-11T07:27:22.144Z,395.2
2022-08-11T07:29:05.857Z,394.9
2022-08-11T07:30:49.545Z,393.1
2022-08-11T07:32:33.251Z,389.8
2022-08-11T07:34:16.960Z,390
2022-08-11T07:36:00.659Z,388.4
2022-08-11T07:37:44.368Z,389.4
2022-08-11T07:39:28.065Z,392.5
2022-08-11T07:41:11.760Z,390.4
2022-08-11T07:42:55.463Z,389.2
2022-08-11T07:44:39.164Z,389.4
2022-08-11T07:46:22.869Z,387.1
2022-08-11T07:48:06.573Z,385.5
2022-08-11T07:49:50.269Z,383.4
2022-08-11T07:51:33.975Z,384.2
2022-08-11T07:53:17.685Z,385.4
2022-08-11T07:55:01.377Z,387.4
2022-08-11T07:56:45.096Z,384.5
2022-08-11T07:58:28.785Z,384.9
2022-08-11T08:00:12.489Z,384.4
2022-08-11T08:01:56.194Z,384.1
2022-08-11T08:03:39.891Z,383.5
2022-08-11T08:05:23.588Z,378.8
2022-08-11T08:07:07.300Z,377.7
2022-08-11T08:08:50.988Z,379.8
2022-08-11T08:10:34.697Z,376.9
2022-08-11T08:12:18.404Z,375.9
2022-08-11T08:14:02.102Z,376.3
2022-08-11T08:15:45.808Z,377.3
2022-08-11T08:17:29.511Z,378.7
2022-08-11T08:19:13.227Z,379
2022-08-11T08:20:56.910Z,378.2
2022-08-11T08:22:40.613Z,376.7
2022-08-11T08:24:24.310Z,378
2022-08-11T08:26:08.018Z,379.7
2022-08-11T08:27:51.711Z,379.6
2022-08-11T08:29:35.435Z,377.1
2022-08-11T08:31:19.132Z,377.1
2022-08-11T08:33:02.843Z,375.5
2022-08-11T08:34:46.542Z,374.4
2022-08-11T08:36:30.233Z,375.5
2022-08-11T08:38:13.952Z,376.2
2022-08-11T08:39:57.643Z,378.2
2022-08-11T08:41:41.348Z,377.9
2022-08-11T08:43:25.063Z,378.9
2022-08-11T08:45:08.739Z,379.1
2022-08-11T08:46:52.434Z,377.6
2022-08-11T08:48:36.149Z,376.7
2022-08-11T08:50:19.940Z,378.4
2022-08-11T08:52:03.574Z,381.3
2022-08-11T08:53:47.244Z,383
2022-08-11T08:55:30.950Z,385.1
2022-08-11T08:57:14.651Z,382.7
2022-08-11T08:58:58.360Z,378.5
2022-08-11T09:00:42.049Z,376.9
2022-08-11T09:02:25.756Z,375.3
2022-08-11T09:04:09.465Z,379.2
2022-08-11T09:05:53.154Z,382.1
2022-08-11T09:07:36.868Z,382.8
2022-08-11T09:09:20.566Z,382.3
2022-08-11T09:11:04.261Z,385.5
2022-08-11T09:12:47.964Z,383.2
2022-08-11T09:14:31.666Z,384.9
2022-08-11T09:16:15.367Z,386.8
2022-08-11T09:17:59.079Z,389.2
2022-08-11T09:19:42.781Z,388.5
2022-08-11T09:21:26.476Z,386.7
2022-08-11T09:23:10.181Z,385.3
2022-08-11T09:24:53.877Z,385.4
2022-08-11T09:28:21.295Z,391.4
2022-08-11T09:30:04.989Z,389.2
2022-08-11T09:31:48.692Z,386.4
2022-08-11T09:33:32.396Z,385.3
2022-08-11T09:35:16.096Z,382.1
2022-08-11T09:36:59.808Z,381.6
2022-08-11T09:38:43.499Z,382.9
2022-08-11T09:40:27.201Z,397.4
2022-08-11T09:42:10.948Z,414.6
2022-08-11T09:43:54.605Z,414.3
2022-08-11T09:45:38.328Z,412.1
2022-08-11T09:47:22.011Z,415.3
2022-08-11T09:49:05.707Z,414.8
2022-08-11T09:50:49.413Z,412.2
2022-08-11T09:52:33.121Z,411.3
2022-08-11T09:54:16.815Z,413.2
2022-08-11T09:56:00.516Z,412.5
2022-08-11T09:57:44.223Z,409.5
2022-08-11T09:59:27.925Z,402.8
2022-08-11T10:02:55.323Z,396.6
2022-08-11T10:04:39.030Z,397.7
2022-08-11T10:06:22.738Z,397.8
2022-08-11T10:08:06.429Z,396.4
2022-08-11T10:09:50.141Z,401.8
2022-08-11T10:11:33.841Z,403.4
2022-08-11T10:13:17.536Z,409.6
2022-08-11T10:15:01.244Z,410.6
2022-08-11T10:16:44.959Z,413.2
2022-08-11T10:18:28.639Z,416.9
2022-08-11T10:20:12.344Z,420.9
2022-08-11T10:21:56.053Z,420.1
2022-08-11T10:23:39.753Z,419.7
2022-08-11T10:25:23.462Z,423.9
2022-08-11T10:27:07.149Z,423.9
2022-08-11T10:28:50.858Z,421.8
2022-08-11T10:30:34.569Z,423.5
2022-08-11T10:32:18.265Z,425.5
2022-08-11T10:34:01.985Z,423.2
2022-08-11T10:35:45.669Z,427.9
2022-08-11T10:37:29.369Z,426.2
2022-08-11T10:39:13.069Z,426.5
2022-08-11T10:40:56.772Z,426.7
2022-08-11T10:42:40.477Z,427.3
2022-08-11T10:44:24.182Z,424.5
2022-08-11T10:46:07.875Z,422.4
2022-08-11T10:47:51.589Z,423
2022-08-11T10:49:35.286Z,422.8
2022-08-11T10:51:18.983Z,422
2022-08-11T10:53:02.691Z,420.6
2022-08-11T10:54:46.391Z,418
2022-08-11T10:56:30.087Z,412.6
2022-08-11T10:58:13.793Z,411.1
2022-08-11T10:59:57.492Z,413.2
2022-08-11T11:01:41.212Z,415
2022-08-11T11:03:24.903Z,415.5
2022-08-11T11:05:08.600Z,412.3
2022-08-11T11:06:52.300Z,407.3
2022-08-11T11:08:36.018Z,406.6
2022-08-11T11:10:19.702Z,406.2
2022-08-11T11:12:03.406Z,404
2022-08-11T11:13:47.110Z,404.5
2022-08-11T11:15:30.808Z,401.3
2022-08-11T11:17:14.510Z,399.2
2022-08-11T11:18:58.213Z,398.5
2022-08-11T11:20:41.915Z,400.2
2022-08-11T11:22:25.628Z,405.4
2022-08-11T11:25:53.018Z,402.2
2022-08-11T11:27:36.727Z,399.3
2022-08-11T11:29:20.427Z,399.9
2022-08-11T11:31:04.126Z,401.1
2022-08-11T11:32:47.836Z,401.5
2022-08-11T11:34:31.522Z,400
2022-08-11T11:36:15.227Z,401.8
2022-08-11T11:37:58.934Z,401.7
2022-08-11T11:39:42.625Z,402
2022-08-11T11:41:26.334Z,399.9
2022-08-11T11:43:10.045Z,398.1
2022-08-11T11:44:53.733Z,397.1
2022-08-11T11:46:37.438Z,399.1
2022-08-11T11:48:21.135Z,398.2
2022-08-11T11:50:04.854Z,396.4
2022-08-11T11:51:48.553Z,395.1
2022-08-11T11:53:32.245Z,391.3
2022-08-11T11:55:15.970Z,391.2
2022-08-11T11:56:59.653Z,392.2
2022-08-11T11:58:43.351Z,390.9
2022-08-11T12:00:27.053Z,389.9
2022-08-11T12:02:10.766Z,389.1
2022-08-11T12:03:54.463Z,390.2
2022-08-11T12:05:38.183Z,391.5
2022-08-11T12:07:21.864Z,392.8
2022-08-11T12:09:05.566Z,393.9
2022-08-11T12:10:49.265Z,393
2022-08-11T12:12:32.967Z,395.7
2022-08-11T12:14:16.671Z,397.9
2022-08-11T12:16:00.383Z,389.6
2022-08-11T12:17:44.068Z,386.4
2022-08-11T12:19:27.769Z,385.9
2022-08-11T12:21:11.485Z,388.8
2022-08-11T12:22:55.173Z,391.6
2022-08-11T12:24:38.883Z,393
2022-08-11T12:26:22.584Z,394.4
2022-08-11T12:28:06.292Z,448.4
2022-08-11T12:29:49.989Z,461.2
2022-08-11T12:31:33.690Z,446.9
2022-08-11T12:33:17.391Z,425.6
2022-08-11T12:35:01.093Z,431.9
2022-08-11T12:36:44.792Z,436
2022-08-11T12:38:28.490Z,436.1
2022-08-11T12:40:12.195Z,434.7
2022-08-11T12:41:55.892Z,433.1
2022-08-11T12:43:39.603Z,432
2022-08-11T12:45:23.300Z,426.9
2022-08-11T12:47:07.015Z,423.2
2022-08-11T12:48:50.708Z,424.1
2022-08-11T12:50:34.422Z,421.9
2022-08-11T12:52:18.118Z,417.3
2022-08-11T12:54:01.811Z,411.4
2022-08-11T12:55:45.514Z,409.5
2022-08-11T12:57:29.221Z,412.6
2022-08-11T12:59:12.923Z,413.1
2022-08-11T13:00:56.625Z,407.7
2022-08-11T13:02:40.349Z,406.4
2022-08-11T13:04:24.019Z,406.9
2022-08-11T13:06:07.723Z,408.8
2022-08-11T13:07:51.432Z,407.2
2022-08-11T13:09:35.126Z,403.2
2022-08-11T13:11:18.829Z,401.8
2022-08-11T13:13:02.542Z,403.7
2022-08-11T13:14:46.230Z,427.6
2022-08-11T13:16:29.940Z,445.3
2022-08-11T13:18:13.656Z,442.8
2022-08-11T13:19:57.341Z,439
2022-08-11T13:21:41.042Z,432.5
2022-08-11T13:23:24.784Z,429.1
2022-08-11T13:25:08.454Z,420.7
2022-08-11T13:26:52.148Z,421.3
2022-08-11T13:28:35.849Z,421.7
2022-08-11T13:30:19.552Z,422
2022-08-11T13:32:03.279Z,421.7
2022-08-11T13:33:46.958Z,419.1
2022-08-11T13:35:30.662Z,418.6
2022-08-11T13:37:14.357Z,417.9
2022-08-11T13:38:58.063Z,416.4
2022-08-11T13:40:41.772Z,415
2022-08-11T13:42:25.459Z,414.3
2022-08-11T13:44:09.184Z,411
2022-08-11T13:45:52.869Z,410.1
2022-08-11T13:47:36.577Z,405.9
2022-08-11T13:49:20.272Z,402.3
2022-08-11T13:51:03.979Z,399.4
2022-08-11T13:52:47.669Z,396
2022-08-11T13:54:31.392Z,396.2
2022-08-11T13:56:15.078Z,399.8
2022-08-11T13:57:58.792Z,396.7
2022-08-11T13:59:42.491Z,394.5
2022-08-11T14:01:26.185Z,396.4
2022-08-11T14:03:09.910Z,399.3
2022-08-11T14:04:53.596Z,401.6
2022-08-11T14:06:37.286Z,403.9
2022-08-11T14:08:20.996Z,404.2
2022-08-11T14:10:04.700Z,405.3
2022-08-11T14:11:48.398Z,404.2
2022-08-11T14:13:32.102Z,404.2
2022-08-11T14:15:15.802Z,403.9
2022-08-11T14:16:59.514Z,401.8
2022-08-11T14:18:43.223Z,399.5
2022-08-11T14:20:26.915Z,395.1
2022-08-11T14:22:10.613Z,395.4
2022-08-11T14:23:54.321Z,392.5
2022-08-11T14:25:38.024Z,394.5
2022-08-11T14:27:21.720Z,400.7
2022-08-11T14:29:05.445Z,401.2
2022-08-11T14:30:49.130Z,400.2
2022-08-11T14:32:32.830Z,398.9
2022-08-11T14:34:16.530Z,396.8
2022-08-11T14:36:00.237Z,396.7
2022-08-11T14:37:43.935Z,398
2022-08-11T14:39:27.635Z,401.7
2022-08-11T14:41:11.340Z,402.4
2022-08-11T14:42:55.052Z,403.3
2022-08-11T14:44:38.748Z,404.8
2022-08-11T14:46:22.464Z,408.9
2022-08-11T14:48:06.157Z,412.5
2022-08-11T14:49:49.853Z,414.6
2022-08-11T14:51:33.558Z,415
2022-08-11T14:53:17.257Z,417.5
2022-08-11T14:55:00.957Z,425.6
2022-08-11T14:56:44.660Z,437
2022-08-11T14:58:28.360Z,441.8
2022-08-11T15:00:12.063Z,446.8
2022-08-11T15:01:55.762Z,450.9
2022-08-11T15:03:39.457Z,451.6
2022-08-11T15:05:23.160Z,453.9
2022-08-11T15:07:06.877Z,462.5
2022-08-11T15:08:50.569Z,471.5
2022-08-11T15:10:34.273Z,475.3
2022-08-11T15:12:17.989Z,483.4
2022-08-11T15:14:01.681Z,483.9
2022-08-11T15:15:45.385Z,480.5
2022-08-11T15:17:29.082Z,480.8
2022-08-11T15:19:12.788Z,481.2
2022-08-11T15:20:56.497Z,481.2
2022-08-11T15:22:40.185Z,483.3
2022-08-11T15:24:23.893Z,510.9
2022-08-11T15:26:07.591Z,536.9
2022-08-11T15:27:51.292Z,559.2
2022-08-11T15:29:34.999Z,559.7
2022-08-11T15:31:18.695Z,553.1
2022-08-11T15:33:02.397Z,543.6
2022-08-11T15:34:46.104Z,539.6
2022-08-11T15:36:29.792Z,534.4
2022-08-11T15:38:13.497Z,536
2022-08-11T15:39:57.213Z,536.9
2022-08-11T15:41:40.899Z,536.2
2022-08-11T15:43:24.607Z,535.9
2022-08-11T15:45:08.305Z,541.2
2022-08-11T15:46:52.011Z,542.6
2022-08-11T15:48:35.710Z,541.3
2022-08-11T15:50:19.416Z,537.7
2022-08-11T15:52:03.118Z,537.7
2022-08-11T15:53:46.823Z,538.2
2022-08-11T15:55:30.514Z,536.5
2022-08-11T15:57:14.219Z,533.1
2022-08-11T15:58:57.925Z,532.7
2022-08-11T16:00:41.627Z,534.6
2022-08-11T16:02:25.325Z,530.6
2022-08-11T16:04:09.025Z,522
2022-08-11T16:05:52.737Z,515.3
2022-08-11T16:07:36.437Z,511
2022-08-11T16:09:20.138Z,506.9
2022-08-11T16:11:03.830Z,504.2
2022-08-11T16:12:47.538Z,497.6
2022-08-11T16:14:31.230Z,499.5
2022-08-11T16:16:14.932Z,499.1
2022-08-11T16:17:58.641Z,498
2022-08-11T16:19:42.352Z,497.9
2022-08-11T16:21:26.050Z,499.9
2022-08-11T16:23:09.746Z,500.4
2022-08-11T16:24:53.449Z,503.5
2022-08-11T16:26:37.154Z,502.5
2022-08-11T16:28:20.851Z,500.8
2022-08-11T16:30:04.554Z,498.7
2022-08-11T16:31:48.259Z,496.4
2022-08-11T16:33:31.950Z,498.6
2022-08-11T16:35:15.659Z,499.3
2022-08-11T16:36:59.367Z,500.3
2022-08-11T16:38:43.063Z,500.7
2022-08-11T16:40:26.771Z,499.7
2022-08-11T16:42:10.467Z,500.2
2022-08-11T16:43:54.182Z,495.4
2022-08-11T16:45:37.881Z,490.6
2022-08-11T16:47:21.567Z,490.2
2022-08-11T16:49:05.277Z,489.7
2022-08-11T16:50:48.980Z,488.6
2022-08-11T16:52:32.666Z,488
2022-08-11T16:54:16.377Z,487.5
2022-08-11T16:56:00.085Z,486.1
2022-08-11T16:57:43.788Z,485.8
2022-08-11T16:59:27.484Z,486.3
2022-08-11T17:01:11.180Z,486.9
2022-08-11T17:02:54.882Z,483.4
2022-08-11T17:04:38.593Z,483.1
2022-08-11T17:06:22.291Z,482.1
2022-08-11T17:08:05.985Z,480.8
2022-08-11T17:09:49.693Z,478.6
2022-08-11T17:11:33.394Z,479.1
2022-08-11T17:13:17.105Z,479.8
2022-08-11T17:15:00.787Z,479
2022-08-11T17:16:44.491Z,477.7
2022-08-11T17:18:28.198Z,476.9
2022-08-11T17:20:11.903Z,479.2
2022-08-11T17:21:55.603Z,476.5
2022-08-11T17:23:39.315Z,471.9
2022-08-11T17:25:23.003Z,469.1
2022-08-11T17:27:06.706Z,466.5
2022-08-11T17:28:50.411Z,467.5
2022-08-11T17:30:34.115Z,468.8
2022-08-11T17:32:17.819Z,467.9
2022-08-11T17:34:01.511Z,467.5
2022-08-11T17:35:45.216Z,466.9
2022-08-11T17:37:28.914Z,468.4
2022-08-11T17:39:12.617Z,469
2022-08-11T17:40:56.320Z,464.8
2022-08-11T17:42:40.024Z,460
2022-08-11T17:44:23.723Z,459.1
2022-08-11T17:46:07.427Z,459.8
2022-08-11T17:47:51.126Z,458.7
2022-08-11T17:49:34.832Z,462.2
2022-08-11T17:51:18.537Z,460.1
2022-08-11T17:53:02.234Z,462
2022-08-11T17:54:45.935Z,462.3
2022-08-11T17:58:13.341Z,465.4
2022-08-11T17:59:57.044Z,467.4
2022-08-11T18:01:40.747Z,467.8
2022-08-11T18:03:24.445Z,464.3
2022-08-11T18:05:08.149Z,465.2
2022-08-11T18:06:51.844Z,466.5
2022-08-11T18:08:35.549Z,463
2022-08-11T18:10:19.249Z,462.3
2022-08-11T18:12:02.957Z,460.4
2022-08-11T18:13:46.662Z,458.7
2022-08-11T18:15:30.354Z,460.2
2022-08-11T18:17:14.062Z,460.3
2022-08-11T18:18:57.764Z,457
2022-08-11T18:20:41.461Z,455.4
2022-08-11T18:22:25.169Z,457
2022-08-11T18:24:08.873Z,456.3
2022-08-11T18:25:52.579Z,457.9
2022-08-11T18:27:36.280Z,455.6
2022-08-11T18:29:19.985Z,454.3
2022-08-11T18:31:03.681Z,453.6
2022-08-11T18:32:47.387Z,454.3
2022-08-11T18:34:31.079Z,449.1
2022-08-11T18:36:14.795Z,433.8
2022-08-11T18:37:58.487Z,432
2022-08-11T18:39:42.195Z,426.7
2022-08-11T18:41:25.892Z,422.9
2022-08-11T18:43:09.589Z,421
2022-08-11T18:44:53.298Z,418
2022-08-11T18:46:37.004Z,416.3
2022-08-11T18:48:20.715Z,418.9
2022-08-11T18:50:04.426Z,422.3
2022-08-11T18:51:48.102Z,420.6
2022-08-11T18:53:31.812Z,420
2022-08-11T18:55:15.529Z,419.9
2022-08-11T18:56:59.205Z,416.4
2022-08-11T18:58:42.915Z,417.8
2022-08-11T19:00:26.637Z,419.3
2022-08-11T19:02:10.312Z,414.6
2022-08-11T19:03:54.019Z,414.7
2022-08-11T19:05:37.715Z,411.1
2022-08-11T19:07:21.421Z,409
2022-08-11T19:09:05.122Z,406.9
2022-08-11T19:10:48.826Z,404.1
2022-08-11T19:12:32.526Z,401.7
2022-08-11T19:14:16.234Z,401.3
2022-08-11T19:15:59.936Z,398.7
2022-08-11T19:17:43.634Z,397.4
2022-08-11T19:19:27.337Z,397.7
2022-08-11T19:21:11.045Z,396.8
2022-08-11T19:22:54.746Z,396.5
2022-08-11T19:24:38.441Z,395.6
2022-08-11T19:26:22.151Z,395.9
2022-08-11T19:28:05.851Z,395.9
2022-08-11T19:29:49.559Z,398.4
2022-08-11T19:31:33.251Z,398.1
2022-08-11T19:33:16.956Z,395.3
2022-08-11T19:35:00.653Z,394.9
2022-08-11T19:36:44.361Z,393.8
2022-08-11T19:38:28.070Z,389.5
2022-08-11T19:40:11.763Z,385.4
2022-08-11T19:41:55.473Z,384.5
2022-08-11T19:43:39.166Z,385.3
2022-08-11T19:45:22.871Z,389.2
2022-08-11T19:47:06.568Z,390.7
2022-08-11T19:48:50.264Z,389.6
2022-08-11T19:50:33.967Z,390
2022-08-11T19:52:17.674Z,388.9
2022-08-11T19:54:01.389Z,389
2022-08-11T19:55:45.092Z,388.8
2022-08-11T19:57:28.780Z,385.5
2022-08-11T19:59:12.487Z,382
2022-08-11T20:00:56.188Z,380.4
2022-08-11T20:02:39.905Z,382.8
2022-08-11T20:04:23.594Z,384.2
2022-08-11T20:06:07.297Z,388.8
2022-08-11T20:07:50.990Z,389.9
2022-08-11T20:09:34.694Z,391
2022-08-11T20:11:18.407Z,391.3
2022-08-11T20:13:02.101Z,391.6
2022-08-11T20:14:45.810Z,392.9
2022-08-11T20:16:29.502Z,391.3
2022-08-11T20:18:13.227Z,389.8
2022-08-11T20:19:56.917Z,390.3
2022-08-11T20:21:40.608Z,389.5
2022-08-11T20:23:24.311Z,389.3
2022-08-11T20:25:08.024Z,389
2022-08-11T20:26:51.717Z,391.6
2022-08-11T20:28:35.424Z,393.3
2022-08-11T20:30:19.142Z,395.7
2022-08-11T20:32:02.838Z,394.5
2022-08-11T20:33:46.529Z,394.8
2022-08-11T20:35:30.232Z,391.7
2022-08-11T20:37:13.936Z,388
2022-08-11T20:38:57.645Z,386.8
2022-08-11T20:40:41.346Z,388.8
2022-08-11T20:42:25.061Z,390.1
2022-08-11T20:44:08.750Z,386.3
2022-08-11T20:45:52.442Z,383.4
2022-08-11T20:47:36.167Z,384.1
2022-08-11T20:49:19.889Z,385
2022-08-11T20:51:03.547Z,385.7
2022-08-11T20:52:47.277Z,386.8
2022-08-11T20:54:30.964Z,389.6
2022-08-11T20:56:14.666Z,390.5
2022-08-11T20:57:58.362Z,389.1
2022-08-11T20:59:42.063Z,390.3
2022-08-11T21:01:25.773Z,390.9
2022-08-11T21:03:09.470Z,387.4
2022-08-11T21:04:53.176Z,386.1
2022-08-11T21:06:36.894Z,385.9
2022-08-11T21:08:20.587Z,386.7
2022-08-11T21:10:04.266Z,386
2022-08-11T21:11:47.979Z,387.5
2022-08-11T21:13:31.678Z,388.1
2022-08-11T21:15:15.374Z,391
2022-08-11T21:16:59.114Z,391.9
2022-08-11T21:18:42.794Z,394.4
2022-08-11T21:20:26.491Z,396.1
2022-08-11T21:22:10.187Z,393.4
2022-08-11T21:23:53.889Z,393.9
2022-08-11T21:25:37.591Z,393.1
2022-08-11T21:27:21.292Z,391.9
2022-08-11T21:29:04.990Z,390.8
2022-08-11T21:30:48.695Z,392.3
2022-08-11T21:32:32.397Z,390.3
2022-08-11T21:34:16.100Z,389.3
2022-08-11T21:35:59.803Z,389.3
2022-08-11T21:37:43.499Z,388.2
2022-08-11T21:39:27.205Z,387.2
2022-08-11T21:41:10.906Z,391.2
2022-08-11T21:42:54.610Z,390.2
2022-08-11T21:44:38.308Z,387.3
2022-08-11T21:46:22.011Z,384.9
2022-08-11T21:48:05.720Z,386.9
2022-08-11T21:49:49.413Z,390.1
2022-08-11T21:51:33.115Z,385.7
2022-08-11T21:53:16.822Z,383.6
2022-08-11T21:55:00.520Z,384.3
2022-08-11T21:56:44.220Z,385.8
2022-08-11T21:58:27.922Z,389
2022-08-11T22:00:11.627Z,388.8
2022-08-11T22:01:55.326Z,388.1
2022-08-11T22:03:39.055Z,389.9
2022-08-11T22:05:22.775Z,393
2022-08-11T22:07:06.425Z,396.5
2022-08-11T22:08:50.139Z,398
2022-08-11T22:10:33.839Z,395.8
2022-08-11T22:12:17.540Z,395.4
2022-08-11T22:14:01.236Z,392.1
2022-08-11T22:15:44.944Z,390.9
2022-08-11T22:17:28.642Z,390.5
2022-08-11T22:19:12.348Z,394.2
2022-08-11T22:20:56.050Z,393.6
2022-08-11T22:22:39.751Z,387.4
2022-08-11T22:24:23.462Z,384.7
2022-08-11T22:26:07.150Z,388.7
2022-08-11T22:27:50.857Z,393.8
2022-08-11T22:29:34.564Z,392
2022-08-11T22:31:18.252Z,390.5